Time;durP1;ratioP1;P1;durP2;ratioP2;P2;SDS_P1;SDS_P2;PMS_P1;PMS_P2;Temp;Humidity;BMP_temperature;BMP_pressure;BME280_temperature;BME280_humidity;BME280_pressure;Samples;Min_cycle;Max_cycle;Signal;HPM_P1;HPM_P2
2023/04/20 00:02:16;;;;;;;12.20;7.93;;;;;;;-144.57;100.00;62443.72;5072342;28;20123;-72
2023/04/20 00:04:42;;;;;;;14.93;8.02;;;;;;;-144.57;100.00;62443.72;5072276;28;20109;-73
2023/04/20 00:07:08;;;;;;;17.27;8.85;;;;;;;-144.57;100.00;62443.72;5053589;28;20076;-72
2023/04/20 00:09:34;;;;;;;13.05;8.30;;;;;;;-144.57;100.00;62443.72;5070977;28;20040;-72
2023/04/20 00:12:01;;;;;;;15.88;8.77;;;;;;;-144.57;100.00;62443.72;5037965;28;20044;-70
2023/04/20 00:14:26;;;;;;;12.82;8.52;;;;;;;-144.57;100.00;62443.72;5069940;28;20047;-71
2023/04/20 00:16:52;;;;;;;17.23;7.82;;;;;;;-144.57;100.00;62443.72;5037128;28;20048;-72
2023/04/20 00:19:19;;;;;;;11.02;7.05;;;;;;;-144.57;100.00;62443.72;5071056;28;20494;-73
2023/04/20 00:21:46;;;;;;;14.20;7.72;;;;;;;-144.57;100.00;62443.72;5053428;28;20084;-72
2023/04/20 00:24:12;;;;;;;11.70;7.55;;;;;;;-144.57;100.00;62443.72;5050716;28;20094;-73
2023/04/20 00:26:38;;;;;;;10.60;6.72;;;;;;;-144.57;100.00;62443.72;5034027;28;20044;-72
2023/04/20 00:29:05;;;;;;;16.17;7.93;;;;;;;-144.57;100.00;62443.72;5033962;28;20041;-72
2023/04/20 00:31:31;;;;;;;16.70;7.88;;;;;;;-144.57;100.00;62443.72;5027595;28;20457;-73
2023/04/20 00:33:57;;;;;;;17.83;8.63;;;;;;;-144.57;100.00;62443.72;5033114;28;20044;-72
2023/04/20 00:36:23;;;;;;;15.95;8.35;;;;;;;-144.57;100.00;62443.72;5054017;28;20053;-71
2023/04/20 00:38:50;;;;;;;15.70;7.50;;;;;;;-144.57;100.00;62443.72;5053573;28;20029;-73
2023/04/20 00:41:16;;;;;;;12.75;7.70;;;;;;;-144.57;100.00;62443.72;5045288;28;20045;-72
2023/04/20 00:43:50;;;;;;;10.85;7.47;;;;;;;-144.57;100.00;62443.72;5033989;28;20128;-72
2023/04/20 00:46:16;;;;;;;15.20;7.38;;;;;;;-144.57;100.00;62443.72;5026914;28;20036;-71
2023/04/20 00:48:42;;;;;;;12.73;7.43;;;;;;;-144.57;100.00;62443.72;5009446;28;20040;-72
2023/04/20 00:51:09;;;;;;;14.23;7.45;;;;;;;-144.57;100.00;62443.72;5059051;28;20055;-71
2023/04/20 00:53:35;;;;;;;14.23;7.43;;;;;;;-144.57;100.00;62443.72;5060616;28;20041;-70
2023/04/20 00:56:01;;;;;;;9.57;6.63;;;;;;;-144.57;100.00;62443.72;5035894;28;20067;-71
2023/04/20 00:58:27;;;;;;;11.95;6.85;;;;;;;-144.57;100.00;62443.72;5043101;28;20048;-70
2023/04/20 01:00:53;;;;;;;14.07;7.07;;;;;;;-144.57;100.00;62443.72;5025465;28;20040;-71
2023/04/20 01:03:19;;;;;;;10.50;6.25;;;;;;;-144.57;100.00;62443.72;5034328;28;20051;-73
2023/04/20 01:05:48;;;;;;;11.88;6.80;;;;;;;-144.57;100.00;62443.72;5046562;28;20364;-72
2023/04/20 01:08:14;;;;;;;10.70;6.53;;;;;;;-144.57;100.00;62443.72;5045030;28;20414;-72
2023/04/20 01:10:40;;;;;;;8.23;6.07;;;;;;;-144.57;100.00;62443.72;5033155;28;20049;-72
2023/04/20 01:13:06;;;;;;;7.82;5.50;;;;;;;-144.57;100.00;62443.72;5017152;28;20099;-72
2023/04/20 01:15:34;;;;;;;10.50;5.88;;;;;;;-144.57;100.00;62443.72;5025124;28;20537;-72
2023/04/20 01:18:00;;;;;;;9.70;6.20;;;;;;;-144.57;100.00;62443.72;5034026;28;20090;-71
2023/04/20 01:20:26;;;;;;;13.82;6.50;;;;;;;-144.57;100.00;62443.72;5000842;28;20037;-72
2023/04/20 01:22:53;;;;;;;12.20;6.25;;;;;;;-144.57;100.00;62443.72;5033597;28;20040;-73
2023/04/20 01:25:20;;;;;;;12.90;6.75;;;;;;;-144.57;100.00;62443.72;5041064;28;20041;-72
2023/04/20 01:27:46;;;;;;;12.25;7.20;;;;;;;-144.57;100.00;62443.72;5049961;28;20033;-72
2023/04/20 01:30:13;;;;;;;9.80;6.18;;;;;;;-144.57;100.00;62443.72;5032912;28;20045;-72
2023/04/20 01:32:39;;;;;;;10.32;6.03;;;;;;;-144.57;100.00;62443.72;5031395;28;20052;-73
2023/04/20 01:35:07;;;;;;;12.73;6.20;;;;;;;-144.57;100.00;62443.72;5054932;28;20082;-71
2023/04/20 01:37:32;;;;;;;12.57;6.50;;;;;;;-144.57;100.00;62443.72;5069281;28;20135;-70
2023/04/20 01:40:03;;;;;;;9.95;6.28;;;;;;;-144.57;100.00;62443.72;5053755;28;20306;-71
2023/04/20 01:42:30;;;;;;;12.93;5.72;;;;;;;-144.57;100.00;62443.72;5037209;28;20624;-71
2023/04/20 01:44:57;;;;;;;10.52;5.63;;;;;;;-144.57;100.00;62443.72;5056115;28;20029;-69
2023/04/20 01:47:22;;;;;;;12.40;6.07;;;;;;;-144.57;100.00;62443.72;5069433;28;20478;-72
2023/04/20 01:49:48;;;;;;;9.75;6.18;;;;;;;-144.57;100.00;62443.72;5051894;28;20106;-71
2023/04/20 01:52:15;;;;;;;8.77;5.70;;;;;;;-144.57;100.00;62443.72;5000631;28;20041;-71
2023/04/20 01:54:40;;;;;;;13.13;6.88;;;;;;;-144.57;100.00;62443.72;5019628;28;20052;-70
2023/04/20 01:57:07;;;;;;;10.52;5.88;;;;;;;-144.57;100.00;62443.72;5053758;28;20050;-72
2023/04/20 01:59:32;;;;;;;9.35;6.25;;;;;;;-144.57;100.00;62443.72;5064947;28;20040;-71
2023/04/20 02:02:01;;;;;;;10.77;6.47;;;;;;;-144.57;100.00;62443.72;5073479;28;20045;-70
2023/04/20 02:04:27;;;;;;;9.57;6.20;;;;;;;-144.57;100.00;62443.72;5040191;28;20047;-69
2023/04/20 02:06:53;;;;;;;14.07;7.05;;;;;;;-144.57;100.00;62443.72;5067601;28;20422;-70
2023/04/20 02:09:18;;;;;;;9.05;6.68;;;;;;;-144.57;100.00;62443.72;5043797;28;20036;-71
2023/04/20 02:11:44;;;;;;;11.95;7.05;;;;;;;-144.57;100.00;62443.72;5073433;28;20051;-71
2023/04/20 02:14:11;;;;;;;10.35;6.57;;;;;;;-144.57;100.00;62443.72;5073287;28;20036;-69
2023/04/20 02:16:37;;;;;;;13.50;6.53;;;;;;;-144.57;100.00;62443.72;5040350;28;20113;-69
2023/04/20 02:19:04;;;;;;;9.05;5.97;;;;;;;-144.57;100.00;62443.72;5037005;28;20043;-69
2023/04/20 02:21:30;;;;;;;13.38;6.57;;;;;;;-144.57;100.00;62443.72;5053447;28;20041;-70
2023/04/20 02:23:56;;;;;;;12.63;6.63;;;;;;;-144.57;100.00;62443.72;5053208;28;20033;-69
2023/04/20 02:26:22;;;;;;;20.35;7.45;;;;;;;-144.57;100.00;62443.72;5036570;28;20582;-70
2023/04/20 02:28:48;;;;;;;10.75;5.95;;;;;;;-144.57;100.00;62443.72;5036337;28;20051;-70
2023/04/20 02:31:14;;;;;;;10.43;6.50;;;;;;;-144.57;100.00;62443.72;5053344;28;20052;-69
2023/04/20 02:33:46;;;;;;;9.48;6.55;;;;;;;-144.57;100.00;62443.72;5057051;28;20119;-70
2023/04/20 02:36:12;;;;;;;12.02;7.80;;;;;;;-144.57;100.00;62443.72;5039549;28;20407;-70
2023/04/20 02:38:39;;;;;;;10.27;6.43;;;;;;;-144.57;100.00;62443.72;5055563;28;20058;-70
2023/04/20 02:41:07;;;;;;;12.07;6.28;;;;;;;-144.57;100.00;62443.72;5059989;28;20049;-70
2023/04/20 02:43:35;;;;;;;10.20;6.13;;;;;;;-144.57;100.00;62443.72;5058076;28;20045;-71
2023/04/20 02:46:02;;;;;;;15.52;6.57;;;;;;;-144.57;100.00;62443.72;5036044;28;20095;-71
2023/04/20 02:48:28;;;;;;;11.75;6.10;;;;;;;-144.57;100.00;62443.72;5053573;28;20536;-70
2023/04/20 02:50:56;;;;;;;10.52;6.05;;;;;;;-144.57;100.00;62443.72;5059259;28;20436;-69
2023/04/20 02:53:24;;;;;;;9.40;6.45;;;;;;;-144.57;100.00;62443.72;5055906;28;20124;-71
2023/04/20 02:56:16;;;;;;;10.57;6.10;;;;;;;-144.57;100.00;62443.72;5036136;28;20057;-72
2023/04/20 02:58:47;;;;;;;10.93;6.22;;;;;;;-144.57;100.00;62443.72;5055082;28;20210;-71
2023/04/20 03:01:20;;;;;;;10.43;6.53;;;;;;;-144.57;100.00;62443.72;5051879;28;20469;-71
2023/04/20 03:03:49;;;;;;;11.02;5.72;;;;;;;-144.57;100.00;62443.72;5067889;28;20143;-73
2023/04/20 03:06:15;;;;;;;14.00;5.90;;;;;;;-144.57;100.00;62443.72;5035644;28;20561;-72
2023/04/20 03:08:46;;;;;;;9.55;5.78;;;;;;;-144.57;100.00;62443.72;5051970;28;20073;-72
2023/04/20 03:11:32;;;;;;;15.05;6.40;;;;;;;-144.57;100.00;62443.72;5049965;28;20257;-73
2023/04/20 03:13:58;;;;;;;10.43;6.05;;;;;;;-144.57;100.00;62443.72;5052066;28;20572;-72
2023/04/20 03:16:24;;;;;;;12.30;6.03;;;;;;;-144.57;100.00;62443.72;5019124;28;20564;-70
2023/04/20 03:18:53;;;;;;;12.80;6.43;;;;;;;-144.57;100.00;62443.72;5035812;28;20072;-71
2023/04/20 03:21:19;;;;;;;12.43;6.00;;;;;;;-144.57;100.00;62443.72;5053447;28;20127;-70
2023/04/20 03:23:45;;;;;;;9.98;6.55;;;;;;;-144.57;100.00;62443.72;5035424;28;20060;-71
2023/04/20 03:26:12;;;;;;;11.70;6.15;;;;;;;-144.57;100.00;62443.72;5035348;28;20143;-71
2023/04/20 03:28:51;;;;;;;12.27;6.90;;;;;;;-144.57;100.00;62443.72;5037383;28;20098;-73
2023/04/20 03:31:21;;;;;;;12.60;7.18;;;;;;;-144.57;100.00;62443.72;5052617;28;20055;-70
2023/04/20 03:33:49;;;;;;;11.43;6.13;;;;;;;-144.57;100.00;62443.72;5052321;28;20123;-73
2023/04/20 03:36:15;;;;;;;11.10;6.32;;;;;;;-144.57;100.00;62443.72;5053699;28;20479;-72
2023/04/20 03:38:45;;;;;;;20.02;6.60;;;;;;;-144.57;100.00;62443.72;5071921;28;20497;-73
2023/04/20 03:41:16;;;;;;;11.88;5.80;;;;;;;-144.57;100.00;62443.72;5053360;28;20052;-71
2023/04/20 03:43:43;;;;;;;22.73;10.82;;;;;;;-144.57;100.00;62443.72;5071847;28;20036;-71
2023/04/20 03:46:09;;;;;;;15.48;8.20;;;;;;;-144.57;100.00;62443.72;5072746;28;20051;-71
2023/04/20 03:48:35;;;;;;;13.63;7.88;;;;;;;-144.57;100.00;62443.72;5055031;28;20064;-72
2023/04/20 03:51:03;;;;;;;12.07;7.30;;;;;;;-144.57;100.00;62443.72;5034788;28;20053;-72
2023/04/20 03:53:30;;;;;;;12.25;7.03;;;;;;;-144.57;100.00;62443.72;5055010;28;20033;-72
2023/04/20 03:56:00;;;;;;;13.05;7.13;;;;;;;-144.57;100.00;62443.72;5056860;28;20561;-71
2023/04/20 03:58:26;;;;;;;11.50;6.80;;;;;;;-144.57;100.00;62443.72;5054512;28;20051;-77
2023/04/20 04:01:22;;;;;;;13.65;6.50;;;;;;;-144.57;100.00;62443.72;5071611;28;20052;-75
2023/04/20 04:03:49;;;;;;;13.65;6.75;;;;;;;-144.57;100.00;62443.72;5054246;28;20059;-69
2023/04/20 04:06:16;;;;;;;11.27;7.07;;;;;;;-144.57;100.00;62443.72;5070123;28;20139;-70
2023/04/20 04:08:42;;;;;;;11.02;8.00;;;;;;;-144.57;100.00;62443.72;5053416;28;20036;-71
2023/04/20 04:11:08;;;;;;;9.00;6.20;;;;;;;-144.57;100.00;62443.72;5054008;28;20056;-72
2023/04/20 04:13:34;;;;;;;11.73;6.88;;;;;;;-144.57;100.00;62443.72;5053637;28;20036;-70
2023/04/20 04:16:01;;;;;;;12.63;7.00;;;;;;;-144.57;100.00;62443.72;5069981;28;20060;-71
2023/04/20 04:18:31;;;;;;;14.18;6.93;;;;;;;-144.57;100.00;62443.72;5070817;28;20513;-71
2023/04/20 04:21:00;;;;;;;14.00;7.05;;;;;;;-144.57;100.00;62443.72;5055202;28;20051;-70
2023/04/20 04:23:26;;;;;;;14.60;7.03;;;;;;;-144.57;100.00;62443.72;5072280;28;20048;-71
2023/04/20 04:26:08;;;;;;;12.93;7.53;;;;;;;-144.57;100.00;62443.72;5035680;28;20045;-70
2023/04/20 04:28:38;;;;;;;10.20;6.60;;;;;;;-144.57;100.00;62443.72;5034821;28;20425;-68
2023/04/20 04:31:16;;;;;;;11.75;7.50;;;;;;;-144.57;100.00;62443.72;5050414;28;20060;-70
2023/04/20 04:33:44;;;;;;;16.63;8.43;;;;;;;-144.57;100.00;62443.72;5016717;28;20037;-69
2023/04/20 04:36:16;;;;;;;15.73;8.10;;;;;;;-144.57;100.00;62443.72;5049087;28;20040;-70
2023/04/20 04:38:45;;;;;;;15.43;8.10;;;;;;;-144.57;100.00;62443.72;5038583;28;20082;-70
2023/04/20 04:41:12;;;;;;;10.88;7.03;;;;;;;-144.57;100.00;62443.72;5053842;28;20041;-71
2023/04/20 04:43:39;;;;;;;11.23;7.68;;;;;;;-144.57;100.00;62443.72;5046988;28;20072;-71
2023/04/20 04:46:18;;;;;;;11.40;7.60;;;;;;;-144.57;100.00;62443.72;5033984;28;20037;-77
2023/04/20 04:48:45;;;;;;;17.60;7.55;;;;;;;-144.57;100.00;62443.72;5054807;28;20029;-76
2023/04/20 04:51:11;;;;;;;12.38;7.88;;;;;;;-144.57;100.00;62443.72;5070073;28;20048;-76
2023/04/20 04:53:37;;;;;;;13.15;8.07;;;;;;;-144.57;100.00;62443.72;5053866;28;20147;-69
2023/04/20 04:56:04;;;;;;;10.20;7.18;;;;;;;-144.57;100.00;62443.72;5070201;28;20567;-71
2023/04/20 04:58:30;;;;;;;10.23;7.38;;;;;;;-144.57;100.00;62443.72;5068648;28;20090;-68
2023/04/20 05:00:56;;;;;;;15.13;7.90;;;;;;;-144.57;100.00;62443.72;5070324;28;20066;-67
2023/04/20 05:03:22;;;;;;;11.40;7.50;;;;;;;-144.57;100.00;62443.72;5071607;28;20036;-67
2023/04/20 05:05:48;;;;;;;10.93;7.15;;;;;;;-144.57;100.00;62443.72;5071981;28;20049;-65
2023/04/20 05:08:14;;;;;;;10.73;7.10;;;;;;;-144.57;100.00;62443.72;5063724;28;20037;-69
2023/04/20 05:10:41;;;;;;;12.57;7.18;;;;;;;-144.57;100.00;62443.72;5051320;28;20239;-66
2023/04/20 05:13:07;;;;;;;12.10;7.15;;;;;;;-144.57;100.00;62443.72;5051297;28;20041;-68
2023/04/20 05:15:33;;;;;;;12.85;7.78;;;;;;;-144.57;100.00;62443.72;5051424;28;20057;-68
2023/04/20 05:18:01;;;;;;;16.50;7.43;;;;;;;-144.57;100.00;62443.72;5054441;28;20114;-71
2023/04/20 05:20:28;;;;;;;13.30;7.40;;;;;;;-144.57;100.00;62443.72;5052521;28;20055;-69
2023/04/20 05:22:54;;;;;;;12.80;6.93;;;;;;;-144.57;100.00;62443.72;5056564;28;20045;-69
2023/04/20 05:25:20;;;;;;;12.68;7.45;;;;;;;-144.57;100.00;62443.72;5055360;28;20083;-68
2023/04/20 05:27:46;;;;;;;12.75;7.15;;;;;;;-144.57;100.00;62443.72;5058875;28;20054;-68
2023/04/20 05:30:12;;;;;;;11.63;7.65;;;;;;;-144.57;100.00;62443.72;5063885;28;20057;-69
2023/04/20 05:32:39;;;;;;;12.57;7.25;;;;;;;-144.57;100.00;62443.72;5053865;28;20089;-68
2023/04/20 05:35:05;;;;;;;12.77;7.22;;;;;;;-144.57;100.00;62443.72;5045754;28;20045;-67
2023/04/20 05:37:32;;;;;;;11.98;6.72;;;;;;;-144.57;100.00;62443.72;5062775;28;20040;-68
2023/04/20 05:39:58;;;;;;;11.18;7.03;;;;;;;-144.57;100.00;62443.72;5032937;28;20061;-69
2023/04/20 05:42:24;;;;;;;18.85;8.48;;;;;;;-144.57;100.00;62443.72;5061514;28;20040;-67
2023/04/20 05:44:50;;;;;;;10.75;6.18;;;;;;;-144.57;100.00;62443.72;5061809;28;20052;-68
2023/04/20 05:47:16;;;;;;;10.60;7.18;;;;;;;-144.57;100.00;62443.72;5061301;28;20036;-68
2023/04/20 05:49:44;;;;;;;10.35;7.25;;;;;;;-144.57;100.00;62443.72;5047634;28;20063;-68
2023/04/20 05:52:11;;;;;;;12.65;6.55;;;;;;;-144.57;100.00;62443.72;5044621;28;20072;-68
2023/04/20 05:54:36;;;;;;;12.88;6.70;;;;;;;-144.57;100.00;62443.72;5062414;28;20076;-67
2023/04/20 05:57:04;;;;;;;7.70;5.90;;;;;;;-144.57;100.00;62443.72;5060077;28;20530;-69
2023/04/20 05:59:30;;;;;;;9.15;6.40;;;;;;;-144.57;100.00;62443.72;5046636;28;20081;-67
2023/04/20 06:01:57;;;;;;;10.85;5.85;;;;;;;-144.57;100.00;62443.72;5062134;28;20451;-68
2023/04/20 06:04:23;;;;;;;9.10;6.18;;;;;;;-144.57;100.00;62443.72;5061344;28;20047;-67
2023/04/20 06:06:49;;;;;;;9.60;6.38;;;;;;;-144.57;100.00;62443.72;5063742;28;20037;-67
2023/04/20 06:09:16;;;;;;;8.90;6.70;;;;;;;-144.57;100.00;62443.72;5073447;28;20074;-69
2023/04/20 06:11:42;;;;;;;8.18;5.55;;;;;;;-144.57;100.00;62443.72;5037091;28;20036;-71
2023/04/20 06:14:10;;;;;;;11.10;6.03;;;;;;;-144.57;100.00;62443.72;5037568;28;20044;-68
2023/04/20 06:16:37;;;;;;;10.05;5.85;;;;;;;-144.57;100.00;62443.72;5055749;28;20045;-68
2023/04/20 06:19:03;;;;;;;10.32;5.88;;;;;;;-144.57;100.00;62443.72;5023124;28;20056;-68
2023/04/20 06:21:30;;;;;;;9.80;6.07;;;;;;;-144.57;100.00;62443.72;5052154;28;20569;-69
2023/04/20 06:23:57;;;;;;;7.40;5.72;;;;;;;-144.57;100.00;62443.72;5056252;28;20513;-71
2023/04/20 06:26:23;;;;;;;8.93;5.63;;;;;;;-144.57;100.00;62443.72;5038992;28;20118;-70
2023/04/20 06:28:51;;;;;;;8.60;5.90;;;;;;;-144.57;100.00;62443.72;5051376;28;20045;-68
2023/04/20 06:31:18;;;;;;;8.93;5.72;;;;;;;-144.57;100.00;62443.72;5054068;28;20139;-69
2023/04/20 06:33:45;;;;;;;10.30;5.97;;;;;;;-144.57;100.00;62443.72;5052732;28;20041;-68
2023/04/20 06:36:11;;;;;;;9.50;6.03;;;;;;;-144.57;100.00;62443.72;5048415;28;20048;-67
2023/04/20 06:38:37;;;;;;;13.73;5.95;;;;;;;-144.57;100.00;62443.72;5059859;28;20116;-68
2023/04/20 06:41:03;;;;;;;7.25;5.25;;;;;;;-144.57;100.00;62443.72;5060442;28;20033;-70
2023/04/20 06:43:32;;;;;;;13.30;5.75;;;;;;;-144.57;100.00;62443.72;5035880;28;20083;-67
2023/04/20 06:45:58;;;;;;;8.60;5.80;;;;;;;-144.57;100.00;62443.72;5051826;28;20056;-68
2023/04/20 06:48:24;;;;;;;10.43;5.95;;;;;;;-144.57;100.00;62443.72;5066481;28;20040;-69
2023/04/20 06:50:50;;;;;;;7.82;5.72;;;;;;;-144.57;100.00;62443.72;5034424;28;20144;-67
2023/04/20 06:53:17;;;;;;;10.80;5.75;;;;;;;-144.57;100.00;62443.72;5055253;28;20052;-68
2023/04/20 06:55:44;;;;;;;7.90;5.30;;;;;;;-144.57;100.00;62443.72;5054509;28;20113;-68
2023/04/20 06:58:09;;;;;;;8.10;5.60;;;;;;;-144.57;100.00;62443.72;5052616;28;20071;-68
2023/04/20 07:00:35;;;;;;;8.27;5.32;;;;;;;-144.57;100.00;62443.72;5069126;28;20117;-68
2023/04/20 07:03:01;;;;;;;15.25;5.85;;;;;;;-144.57;100.00;62443.72;5064629;28;20032;-68
2023/04/20 07:05:28;;;;;;;10.60;5.53;;;;;;;-144.57;100.00;62443.72;5058178;28;20037;-64
2023/04/20 07:07:54;;;;;;;9.82;5.38;;;;;;;-144.57;100.00;62443.72;5043270;28;20064;-65
2023/04/20 07:10:21;;;;;;;7.72;6.28;;;;;;;-144.57;100.00;62443.72;5059715;28;20095;-65
2023/04/20 07:13:30;;;;;;;8.88;5.03;;;;;;;-144.57;100.00;62443.72;5050267;28;20557;-68
2023/04/20 07:16:36;;;;;;;6.32;5.22;;;;;;;-144.57;100.00;62443.72;5056121;28;20048;-67
2023/04/20 07:19:14;;;;;;;7.13;4.53;;;;;;;-144.57;100.00;62443.72;5042172;28;20052;-67
2023/04/20 07:21:40;;;;;;;6.85;4.80;;;;;;;-144.57;100.00;62443.72;5068536;28;20047;-66
2023/04/20 07:24:06;;;;;;;5.28;4.53;;;;;;;-144.57;100.00;62443.72;5069251;28;20043;-68
2023/04/20 07:26:32;;;;;;;5.78;4.40;;;;;;;-144.57;100.00;62443.72;5049331;28;20459;-67
2023/04/20 07:32:40;;;;;;;8.18;4.40;;;;;;;-144.57;100.00;62443.72;5070132;28;20052;-65
2023/04/20 07:35:06;;;;;;;7.57;5.10;;;;;;;-144.57;100.00;62443.72;5052539;28;20530;-66
2023/04/20 07:37:33;;;;;;;5.57;4.60;;;;;;;-144.57;100.00;62443.72;5058987;28;20127;-67
2023/04/20 07:40:00;;;;;;;6.25;4.47;;;;;;;-144.57;100.00;62443.72;5070365;28;20178;-67
2023/04/20 07:42:28;;;;;;;7.65;4.68;;;;;;;-144.57;100.00;62443.72;5017167;28;20040;-67
2023/04/20 07:44:54;;;;;;;7.70;4.60;;;;;;;-144.57;100.00;62443.72;5049690;28;20122;-66
2023/04/20 07:47:20;;;;;;;7.50;4.85;;;;;;;-144.57;100.00;62443.72;5041618;28;20090;-68
2023/04/20 07:49:46;;;;;;;7.05;5.13;;;;;;;-144.57;100.00;62443.72;5052383;28;20525;-68
2023/04/20 07:52:11;;;;;;;10.90;4.95;;;;;;;-144.57;100.00;62443.72;5051086;28;20080;-65
2023/04/20 07:54:38;;;;;;;5.68;4.47;;;;;;;-144.57;100.00;62443.72;5054226;28;20037;-67
2023/04/20 07:57:04;;;;;;;7.65;5.15;;;;;;;-144.57;100.00;62443.72;5067098;28;20044;-67
2023/04/20 07:59:29;;;;;;;7.15;4.80;;;;;;;-144.57;100.00;62443.72;5066043;28;20391;-69
2023/04/20 08:02:00;;;;;;;6.28;4.78;;;;;;;-144.57;100.00;62443.72;5044872;28;20527;-67
2023/04/20 08:04:26;;;;;;;6.53;4.90;;;;;;;-144.57;100.00;62443.72;5032615;28;20541;-69
2023/04/20 08:06:52;;;;;;;7.65;4.53;;;;;;;-144.57;100.00;62443.72;5000093;28;20061;-66
2023/04/20 08:09:19;;;;;;;6.82;5.10;;;;;;;-144.57;100.00;62443.72;5029076;28;20036;-66
2023/04/20 08:11:46;;;;;;;8.73;5.25;;;;;;;-144.57;100.00;62443.72;5018971;28;20091;-67
2023/04/20 08:14:14;;;;;;;7.80;5.00;;;;;;;-144.57;100.00;62443.72;5067452;28;20037;-69
2023/04/20 08:16:40;;;;;;;5.68;4.35;;;;;;;-144.57;100.00;62443.72;5058534;28;20040;-69
2023/04/20 08:19:09;;;;;;;7.20;4.32;;;;;;;-144.57;100.00;62443.72;5058751;28;20565;-74
2023/04/20 08:21:38;;;;;;;5.28;4.00;;;;;;;-144.57;100.00;62443.72;5059937;28;20048;-73
2023/04/20 08:24:04;;;;;;;6.40;4.88;;;;;;;-144.57;100.00;62443.72;5056742;28;20043;-71
2023/04/20 08:26:30;;;;;;;6.78;4.80;;;;;;;-144.57;100.00;62443.72;5059708;28;20530;-70
2023/04/20 08:28:56;;;;;;;5.28;4.45;;;;;;;-144.57;100.00;62443.72;5055362;28;20098;-70
2023/04/20 08:31:22;;;;;;;7.95;4.20;;;;;;;-144.57;100.00;62443.72;5050587;28;20518;-68
2023/04/20 08:33:48;;;;;;;6.05;4.82;;;;;;;-144.57;100.00;62443.72;5052478;28;20102;-71
2023/04/20 08:36:14;;;;;;;6.72;4.50;;;;;;;-144.57;100.00;62443.72;5068358;28;20053;-68
2023/04/20 08:38:40;;;;;;;5.63;4.68;;;;;;;-144.57;100.00;62443.72;5058448;28;20528;-66
2023/04/20 08:41:25;;;;;;;5.45;4.63;;;;;;;-144.57;100.00;62443.72;5048451;28;20079;-66
2023/04/20 08:43:52;;;;;;;9.77;4.95;;;;;;;-144.57;100.00;62443.72;5059776;28;20040;-69
2023/04/20 08:46:19;;;;;;;6.35;4.47;;;;;;;-144.57;100.00;62443.72;5070338;28;20105;-67
2023/04/20 08:48:47;;;;;;;9.48;4.95;;;;;;;-144.57;100.00;62443.72;5066977;28;20072;-71
2023/04/20 08:51:19;;;;;;;6.85;4.10;;;;;;;-144.57;100.00;62443.72;5050809;28;20049;-68
2023/04/20 08:53:45;;;;;;;5.82;4.47;;;;;;;-144.57;100.00;62443.72;5052045;28;20564;-71
2023/04/20 08:56:11;;;;;;;6.28;4.15;;;;;;;-144.57;100.00;62443.72;5034809;28;20052;-71
2023/04/20 08:58:42;;;;;;;8.40;4.18;;;;;;;-144.57;100.00;62443.72;5052044;28;20036;-70
2023/04/20 09:01:17;;;;;;;7.93;4.45;;;;;;;-144.57;100.00;62443.72;5052773;28;20045;-73
2023/04/20 09:04:22;;;;;;;7.22;4.60;;;;;;;-144.57;100.00;62443.72;5050173;28;20053;-72
2023/04/20 09:06:52;;;;;;;5.82;4.47;;;;;;;-144.57;100.00;62443.72;5049840;28;20056;-68
2023/04/20 09:09:22;;;;;;;5.47;4.50;;;;;;;-144.57;100.00;62443.72;5059282;28;20073;-72
2023/04/20 09:12:09;;;;;;;6.75;4.65;;;;;;;-144.57;100.00;62443.72;5054580;28;20045;-72
2023/04/20 09:14:44;;;;;;;6.75;4.20;;;;;;;-144.57;100.00;62443.72;5052536;28;20131;-70
2023/04/20 09:17:13;;;;;;;5.65;3.90;;;;;;;-144.57;100.00;62443.72;5037464;28;20064;-69
2023/04/20 09:19:40;;;;;;;7.63;4.03;;;;;;;-144.57;100.00;62443.72;5050784;28;20053;-70
2023/04/20 09:22:06;;;;;;;6.50;4.10;;;;;;;-144.57;100.00;62443.72;5051614;28;20091;-69
2023/04/20 09:24:42;;;;;;;6.13;4.00;;;;;;;-144.57;100.00;62443.72;5053201;28;20071;-67
2023/04/20 09:27:15;;;;;;;5.45;3.75;;;;;;;-144.57;100.00;62443.72;5056520;28;20498;-69
2023/04/20 09:30:02;;;;;;;9.33;4.33;;;;;;;-144.57;100.00;62443.72;5052505;28;20122;-68
2023/04/20 09:32:36;;;;;;;6.00;4.07;;;;;;;-144.57;100.00;62443.72;5044760;28;20414;-69
2023/04/20 09:35:11;;;;;;;4.93;3.78;;;;;;;-144.57;100.00;62443.72;5026336;28;20041;-70
2023/04/20 09:37:46;;;;;;;9.35;4.70;;;;;;;-144.57;100.00;62443.72;5060605;28;20040;-67
2023/04/20 09:40:13;;;;;;;7.15;4.28;;;;;;;-144.57;100.00;62443.72;5049949;28;20058;-69
2023/04/20 09:42:40;;;;;;;7.88;4.70;;;;;;;-144.57;100.00;62443.72;5032279;28;20044;-67
2023/04/20 09:45:18;;;;;;;6.68;5.07;;;;;;;-144.57;100.00;62443.72;5052111;28;20045;-74
2023/04/20 09:48:04;;;;;;;6.85;4.60;;;;;;;-144.57;100.00;62443.72;5036849;28;20045;-70
2023/04/20 09:50:34;;;;;;;5.80;4.57;;;;;;;-144.57;100.00;62443.72;5056009;28;20537;-70
2023/04/20 09:53:10;;;;;;;6.03;4.57;;;;;;;-144.57;100.00;62443.72;5040797;28;20078;-71
2023/04/20 09:55:36;;;;;;;5.57;4.45;;;;;;;-144.57;100.00;62443.72;5036955;28;20047;-72
2023/04/20 09:58:05;;;;;;;6.03;4.32;;;;;;;-144.57;100.00;62443.72;5045678;28;20033;-69
2023/04/20 10:00:34;;;;;;;7.57;4.35;;;;;;;-144.57;100.00;62443.72;5002504;28;20040;-69
2023/04/20 10:03:10;;;;;;;5.15;4.30;;;;;;;-144.57;100.00;62443.72;5049637;28;20509;-71
2023/04/20 10:05:45;;;;;;;5.20;4.05;;;;;;;-144.57;100.00;62443.72;5035291;28;20037;-70
2023/04/20 10:08:11;;;;;;;5.90;4.35;;;;;;;-144.57;100.00;62443.72;5052962;28;20051;-71
2023/04/20 10:10:45;;;;;;;5.30;4.32;;;;;;;-144.57;100.00;62443.72;5067656;28;20048;-71
2023/04/20 10:13:11;;;;;;;5.82;4.40;;;;;;;-144.57;100.00;62443.72;5051679;28;20063;-69
2023/04/20 10:15:38;;;;;;;7.13;4.28;;;;;;;-144.57;100.00;62443.72;5070169;28;20521;-70
2023/04/20 10:18:18;;;;;;;6.30;4.32;;;;;;;-144.57;100.00;62443.72;5060505;28;20055;-71
2023/04/20 10:20:44;;;;;;;6.37;4.30;;;;;;;-144.57;100.00;62443.72;5065313;28;20044;-74
2023/04/20 10:23:10;;;;;;;6.28;4.30;;;;;;;-144.57;100.00;62443.72;5031619;28;20289;-75
2023/04/20 10:25:36;;;;;;;4.90;4.15;;;;;;;-144.57;100.00;62443.72;5047043;28;20045;-76
2023/04/20 10:28:07;;;;;;;6.90;4.60;;;;;;;-144.57;100.00;62443.72;5030554;28;20544;-71
2023/04/20 10:30:32;;;;;;;;;;;;;;;-144.57;100.00;62443.72;5068171;28;20052;-71
2023/04/20 10:33:11;;;;;;;4.57;4.13;;;;;;;-144.57;100.00;62443.72;5069364;28;19924;-70
2023/04/20 10:35:49;;;;;;;9.02;4.63;;;;;;;-144.57;100.00;62443.72;5061858;28;20041;-71
2023/04/20 10:38:36;;;;;;;7.55;4.53;;;;;;;-144.57;100.00;62443.72;5053865;28;20037;-70
2023/04/20 10:41:09;;;;;;;6.38;5.05;;;;;;;-144.57;100.00;62443.72;5071332;28;20044;-71
2023/04/20 10:43:37;;;;;;;7.65;5.03;;;;;;;-144.57;100.00;62443.72;5041162;28;20067;-70
2023/04/20 10:46:19;;;;;;;6.20;4.25;;;;;;;-144.57;100.00;62443.72;5054084;28;20041;-70
2023/04/20 10:48:52;;;;;;;5.75;4.15;;;;;;;-144.57;100.00;62443.72;5049263;28;20036;-72
2023/04/20 10:51:19;;;;;;;8.85;4.50;;;;;;;-144.57;100.00;62443.72;5050671;28;20060;-71
2023/04/20 10:53:45;;;;;;;10.77;4.55;;;;;;;-144.57;100.00;62443.72;5022831;28;20487;-71
2023/04/20 10:56:11;;;;;;;11.60;4.50;;;;;;;-144.57;100.00;62443.72;5069785;28;20604;-70
2023/04/20 10:58:36;;;;;;;5.68;4.30;;;;;;;-144.57;100.00;62443.72;5069976;28;20478;-71
2023/04/20 11:04:59;;;;;;;11.32;5.50;;;;;;;-144.57;100.00;62443.72;5056366;28;20038;-72
2023/04/20 11:07:28;;;;;;;7.95;5.10;;;;;;;-144.57;100.00;62443.72;5054486;28;20032;-71
2023/04/20 11:09:58;;;;;;;11.43;4.35;;;;;;;-144.57;100.00;62443.72;5042048;28;20145;-71
2023/04/20 11:12:24;;;;;;;6.80;4.13;;;;;;;-144.57;100.00;62443.72;5050880;28;20596;-73
2023/04/20 11:14:54;;;;;;;4.72;4.22;;;;;;;-144.57;100.00;62443.72;5060938;28;20045;-73
2023/04/20 11:17:33;;;;;;;6.72;4.72;;;;;;;-144.57;100.00;62443.72;5055865;28;20040;-72
2023/04/20 11:20:13;;;;;;;6.53;3.97;;;;;;;-144.57;100.00;62443.72;5056994;28;20101;-71